sensor_id;sensor_type;location;lat;lon;timestamp;pressure;altitude;pressure_sealevel;temperature;humidity
39223;BME280;24936;46.328;11.026;2024-01-30T00:00:06;96080.88;;;-4.05;100.00
39223;BME280;24936;46.328;11.026;2024-01-30T00:02:33;96086.09;;;-4.11;100.00
39223;BME280;24936;46.328;11.026;2024-01-30T00:04:58;96077.59;;;-4.21;100.00
39223;BME280;24936;46.328;11.026;2024-01-30T00:07:24;96073.34;;;-4.28;100.00
39223;BME280;24936;46.328;11.026;2024-01-30T00:09:49;96082.81;;;-4.35;100.00
39223;BME280;24936;46.328;11.026;2024-01-30T00:12:15;96077.66;;;-4.32;100.00
39223;BME280;24936;46.328;11.026;2024-01-30T00:14:42;96075.94;;;-4.30;100.00
39223;BME280;24936;46.328;11.026;2024-01-30T00:17:08;96070.78;;;-4.30;100.00
39223;BME280;24936;46.328;11.026;2024-01-30T00:19:34;96076.72;;;-4.24;100.00
39223;BME280;24936;46.328;11.026;2024-01-30T00:21:59;96074.22;;;-4.31;100.00
39223;BME280;24936;46.328;11.026;2024-01-30T00:24:25;96070.78;;;-4.30;100.00
39223;BME280;24936;46.328;11.026;2024-01-30T00:26:50;96070.75;;;-4.25;100.00
39223;BME280;24936;46.328;11.026;2024-01-30T00:29:16;96072.41;;;-4.16;100.00
39223;BME280;24936;46.328;11.026;2024-01-30T00:31:45;96065.53;;;-4.14;100.00
39223;BME280;24936;46.328;11.026;2024-01-30T00:34:10;96063.81;;;-4.13;100.00
39223;BME280;24936;46.328;11.026;2024-01-30T00:36:36;96070.63;;;-4.08;100.00
39223;BME280;24936;46.328;11.026;2024-01-30T00:39:02;96072.31;;;-4.07;100.00
39223;BME280;24936;46.328;11.026;2024-01-30T00:41:31;96073.22;;;-4.12;100.00
39223;BME280;24936;46.328;11.026;2024-01-30T00:43:56;96074.09;;;-4.13;100.00
39223;BME280;24936;46.328;11.026;2024-01-30T00:46:22;96070.72;;;-4.19;100.00
39223;BME280;24936;46.328;11.026;2024-01-30T00:48:47;96065.59;;;-4.25;100.00
39223;BME280;24936;46.328;11.026;2024-01-30T00:51:13;96063.94;;;-4.31;100.00
39223;BME280;24936;46.328;11.026;2024-01-30T00:53:38;96063.06;;;-4.31;100.00
39223;BME280;24936;46.328;11.026;2024-01-30T00:56:04;96064.78;;;-4.25;100.00
39223;BME280;24936;46.328;11.026;2024-01-30T00:58:29;96065.63;;;-4.31;100.00
39223;BME280;24936;46.328;11.026;2024-01-30T01:00:55;96066.53;;;-4.34;100.00
39223;BME280;24936;46.328;11.026;2024-01-30T01:03:20;96069.94;;;-4.32;100.00
39223;BME280;24936;46.328;11.026;2024-01-30T01:05:46;96073.44;;;-4.40;100.00
39223;BME280;24936;46.328;11.026;2024-01-30T01:08:12;96075.06;;;-4.30;100.00
39223;BME280;24936;46.328;11.026;2024-01-30T01:10:37;96075.91;;;-4.26;100.00
39223;BME280;24936;46.328;11.026;2024-01-30T01:13:03;96070.81;;;-4.33;100.00
39223;BME280;24936;46.328;11.026;2024-01-30T01:15:28;96064.84;;;-4.36;100.00
39223;BME280;24936;46.328;11.026;2024-01-30T01:17:54;96067.44;;;-4.42;100.00
39223;BME280;24936;46.328;11.026;2024-01-30T01:20:19;96070.06;;;-4.49;100.00
39223;BME280;24936;46.328;11.026;2024-01-30T01:22:45;96064.91;;;-4.47;100.00
39223;BME280;24936;46.328;11.026;2024-01-30T01:25:10;96070.91;;;-4.45;100.00
39223;BME280;24936;46.328;11.026;2024-01-30T01:27:36;96066.59;;;-4.40;100.00
39223;BME280;24936;46.328;11.026;2024-01-30T01:30:10;96070.88;;;-4.39;100.00
39223;BME280;24936;46.328;11.026;2024-01-30T01:32:37;96068.28;;;-4.40;100.00
39223;BME280;24936;46.328;11.026;2024-01-30T01:35:04;96070.03;;;-4.47;100.00
39223;BME280;24936;46.328;11.026;2024-01-30T01:37:31;96065.78;;;-4.47;100.00
39223;BME280;24936;46.328;11.026;2024-01-30T01:39:56;96063.16;;;-4.42;100.00
39223;BME280;24936;46.328;11.026;2024-01-30T01:42:22;96058.00;;;-4.40;100.00
39223;BME280;24936;46.328;11.026;2024-01-30T01:44:47;96063.16;;;-4.43;100.00
39223;BME280;24936;46.328;11.026;2024-01-30T01:47:14;96059.75;;;-4.46;100.00
39223;BME280;24936;46.328;11.026;2024-01-30T01:49:40;96058.91;;;-4.49;100.00
39223;BME280;24936;46.328;11.026;2024-01-30T01:52:06;96063.19;;;-4.45;100.00
39223;BME280;24936;46.328;11.026;2024-01-30T01:54:32;96061.47;;;-4.49;100.00
39223;BME280;24936;46.328;11.026;2024-01-30T01:56:58;96054.66;;;-4.55;100.00
39223;BME280;24936;46.328;11.026;2024-01-30T01:59:24;96062.41;;;-4.59;100.00
39223;BME280;24936;46.328;11.026;2024-01-30T02:01:51;96059.03;;;-4.63;100.00
39223;BME280;24936;46.328;11.026;2024-01-30T02:04:18;96063.31;;;-4.62;100.00
39223;BME280;24936;46.328;11.026;2024-01-30T02:06:44;96062.44;;;-4.66;100.00
39223;BME280;24936;46.328;11.026;2024-01-30T02:09:10;96057.34;;;-4.69;100.00
39223;BME280;24936;46.328;11.026;2024-01-30T02:11:35;96059.00;;;-4.62;100.00
39223;BME280;24936;46.328;11.026;2024-01-30T02:14:04;96056.38;;;-4.51;100.00
39223;BME280;24936;46.328;11.026;2024-01-30T02:16:31;96058.09;;;-4.56;100.00
39223;BME280;24936;46.328;11.026;2024-01-30T02:18:56;96063.25;;;-4.59;100.00
39223;BME280;24936;46.328;11.026;2024-01-30T02:21:22;96058.09;;;-4.56;100.00
39223;BME280;24936;46.328;11.026;2024-01-30T02:23:48;96058.88;;;-4.43;100.00
39223;BME280;24936;46.328;11.026;2024-01-30T02:26:15;96063.16;;;-4.43;100.00
39223;BME280;24936;46.328;11.026;2024-01-30T02:28:40;96056.38;;;-4.54;100.00
39223;BME280;24936;46.328;11.026;2024-01-30T02:31:06;96063.31;;;-4.65;100.00
39223;BME280;24936;46.328;11.026;2024-01-30T02:33:31;96064.22;;;-4.74;100.00
39223;BME280;24936;46.328;11.026;2024-01-30T02:35:57;96064.22;;;-4.74;100.00
39223;BME280;24936;46.328;11.026;2024-01-30T02:38:23;96065.13;;;-4.81;100.00
39223;BME280;24936;46.328;11.026;2024-01-30T02:40:49;96059.97;;;-4.80;100.00
39223;BME280;24936;46.328;11.026;2024-01-30T02:43:15;96065.94;;;-4.76;100.00
39223;BME280;24936;46.328;11.026;2024-01-30T02:45:41;96061.56;;;-4.65;100.00
39223;BME280;24936;46.328;11.026;2024-01-30T02:48:07;96062.47;;;-4.73;100.00
39223;BME280;24936;46.328;11.026;2024-01-30T02:50:32;96059.06;;;-4.74;100.00
39223;BME280;24936;46.328;11.026;2024-01-30T02:52:58;96057.34;;;-4.72;100.00
39223;BME280;24936;46.328;11.026;2024-01-30T02:55:23;96055.63;;;-4.68;100.00
39223;BME280;24936;46.328;11.026;2024-01-30T02:57:49;96056.41;;;-4.57;100.00
39223;BME280;24936;46.328;11.026;2024-01-30T03:00:14;96057.28;;;-4.63;100.00
39223;BME280;24936;46.328;11.026;2024-01-30T03:02:40;96050.50;;;-4.73;100.00
39223;BME280;24936;46.328;11.026;2024-01-30T03:05:06;96055.66;;;-4.76;100.00
39223;BME280;24936;46.328;11.026;2024-01-30T03:07:31;96053.97;;;-4.79;100.00
39223;BME280;24936;46.328;11.026;2024-01-30T03:09:58;96055.72;;;-4.85;100.00
39223;BME280;24936;46.328;11.026;2024-01-30T03:12:23;96048.03;;;-4.93;100.00
39223;BME280;24936;46.328;11.026;2024-01-30T03:14:49;96047.22;;;-4.97;100.00
39223;BME280;24936;46.328;11.026;2024-01-30T03:17:15;96040.34;;;-4.95;100.00
39223;BME280;24936;46.328;11.026;2024-01-30T03:19:40;96048.00;;;-4.88;100.00
39223;BME280;24936;46.328;11.026;2024-01-30T03:22:06;96043.66;;;-4.71;100.00
39223;BME280;24936;46.328;11.026;2024-01-30T03:24:32;96044.53;;;-4.80;100.00
39223;BME280;24936;46.328;11.026;2024-01-30T03:26:57;96043.72;;;-4.86;100.00
39223;BME280;24936;46.328;11.026;2024-01-30T03:29:23;96044.56;;;-4.83;100.00
39223;BME280;24936;46.328;11.026;2024-01-30T03:31:48;96043.69;;;-4.79;100.00
39223;BME280;24936;46.328;11.026;2024-01-30T03:34:14;96041.09;;;-4.77;100.00
39223;BME280;24936;46.328;11.026;2024-01-30T03:36:39;96046.25;;;-4.79;100.00
39223;BME280;24936;46.328;11.026;2024-01-30T03:39:05;96042.00;;;-4.84;100.00
39223;BME280;24936;46.328;11.026;2024-01-30T03:41:31;96041.25;;;-5.02;100.00
39223;BME280;24936;46.328;11.026;2024-01-30T03:43:57;96028.41;;;-5.07;100.00
39223;BME280;24936;46.328;11.026;2024-01-30T03:46:22;96032.69;;;-5.05;100.00
39223;BME280;24936;46.328;11.026;2024-01-30T03:48:48;96031.88;;;-5.12;100.00
39223;BME280;24936;46.328;11.026;2024-01-30T03:51:13;96030.16;;;-5.10;100.00
39223;BME280;24936;46.328;11.026;2024-01-30T03:53:41;96030.13;;;-5.07;100.00
39223;BME280;24936;46.328;11.026;2024-01-30T03:56:08;96033.53;;;-5.02;100.00
39223;BME280;24936;46.328;11.026;2024-01-30T03:58:33;96024.13;;;-5.03;100.00
39223;BME280;24936;46.328;11.026;2024-01-30T04:00:59;96030.97;;;-5.03;100.00
39223;BME280;24936;46.328;11.026;2024-01-30T04:03:24;96024.09;;;-5.01;100.00
39223;BME280;24936;46.328;11.026;2024-01-30T04:05:51;96030.97;;;-5.02;100.00
39223;BME280;24936;46.328;11.026;2024-01-30T04:08:17;96027.53;;;-5.04;100.00
39223;BME280;24936;46.328;11.026;2024-01-30T04:10:43;96024.13;;;-5.06;100.00
39223;BME280;24936;46.328;11.026;2024-01-30T04:13:08;96027.56;;;-5.02;100.00
39223;BME280;24936;46.328;11.026;2024-01-30T04:15:34;96024.97;;;-5.04;100.00
39223;BME280;24936;46.328;11.026;2024-01-30T04:18:00;96026.72;;;-5.14;100.00
39223;BME280;24936;46.328;11.026;2024-01-30T04:20:26;96025.09;;;-5.26;100.00
39223;BME280;24936;46.328;11.026;2024-01-30T04:22:51;96025.91;;;-5.22;100.00
39223;BME280;24936;46.328;11.026;2024-01-30T04:25:17;96019.09;;;-5.26;100.00
39223;BME280;24936;46.328;11.026;2024-01-30T04:27:42;96022.50;;;-5.23;100.00
39223;BME280;24936;46.328;11.026;2024-01-30T04:30:08;96019.06;;;-5.17;100.00
39223;BME280;24936;46.328;11.026;2024-01-30T04:32:35;96025.03;;;-5.10;100.00
39223;BME280;24936;46.328;11.026;2024-01-30T04:35:00;96022.44;;;-5.09;100.00
39223;BME280;24936;46.328;11.026;2024-01-30T04:37:26;96019.84;;;-5.07;100.00
39223;BME280;24936;46.328;11.026;2024-01-30T04:39:53;96020.72;;;-5.08;100.00
39223;BME280;24936;46.328;11.026;2024-01-30T04:42:18;96024.19;;;-5.17;100.00
39223;BME280;24936;46.328;11.026;2024-01-30T04:44:44;96020.78;;;-5.19;100.00
39223;BME280;24936;46.328;11.026;2024-01-30T04:47:09;96020.75;;;-5.11;100.00
39223;BME280;24936;46.328;11.026;2024-01-30T04:49:38;96027.50;;;-4.90;100.00
39223;BME280;24936;46.328;11.026;2024-01-30T04:52:05;96026.59;;;-4.81;100.00
39223;BME280;24936;46.328;11.026;2024-01-30T04:54:31;96022.13;;;-4.57;100.00
39223;BME280;24936;46.328;11.026;2024-01-30T04:56:56;96026.34;;;-4.47;100.00
39223;BME280;24936;46.328;11.026;2024-01-30T04:59:22;96028.66;;;-4.13;100.00
39223;BME280;24936;46.328;11.026;2024-01-30T05:01:47;96026.94;;;-4.12;100.00
39223;BME280;24936;46.328;11.026;2024-01-30T05:04:13;96031.47;;;-4.47;100.00
39223;BME280;24936;46.328;11.026;2024-01-30T05:06:38;96036.81;;;-4.78;100.00
39223;BME280;24936;46.328;11.026;2024-01-30T05:09:04;96042.06;;;-5.01;100.00
39223;BME280;24936;46.328;11.026;2024-01-30T05:11:30;96040.44;;;-5.10;100.00
39223;BME280;24936;46.328;11.026;2024-01-30T05:13:55;96043.84;;;-5.11;100.00
39223;BME280;24936;46.328;11.026;2024-01-30T05:16:21;96038.75;;;-5.20;100.00
39223;BME280;24936;46.328;11.026;2024-01-30T05:18:46;96039.66;;;-5.31;100.00
39223;BME280;24936;46.328;11.026;2024-01-30T05:21:12;96039.66;;;-5.35;100.00
39223;BME280;24936;46.328;11.026;2024-01-30T05:23:38;96041.38;;;-5.36;100.00
39223;BME280;24936;46.328;11.026;2024-01-30T05:26:04;96041.38;;;-5.36;100.00
39223;BME280;24936;46.328;11.026;2024-01-30T05:28:29;96047.38;;;-5.40;100.00
39223;BME280;24936;46.328;11.026;2024-01-30T05:30:56;96043.97;;;-5.42;100.00
39223;BME280;24936;46.328;11.026;2024-01-30T05:33:21;96043.97;;;-5.45;100.00
39223;BME280;24936;46.328;11.026;2024-01-30T05:35:47;96037.13;;;-5.43;100.00
39223;BME280;24936;46.328;11.026;2024-01-30T05:38:13;96033.75;;;-5.55;100.00
39223;BME280;24936;46.328;11.026;2024-01-30T05:40:39;96039.75;;;-5.56;100.00
39223;BME280;24936;46.328;11.026;2024-01-30T05:43:04;96037.13;;;-5.49;100.00
39223;BME280;24936;46.328;11.026;2024-01-30T05:45:30;96033.72;;;-5.50;100.00
39223;BME280;24936;46.328;11.026;2024-01-30T05:47:55;96030.28;;;-5.38;100.00
39223;BME280;24936;46.328;11.026;2024-01-30T05:50:20;96025.09;;;-5.32;100.00
39223;BME280;24936;46.328;11.026;2024-01-30T05:52:48;96031.94;;;-5.34;100.00
39223;BME280;24936;46.328;11.026;2024-01-30T05:55:14;96036.28;;;-5.53;100.00
39223;BME280;24936;46.328;11.026;2024-01-30T05:57:39;96025.19;;;-5.52;100.00
39223;BME280;24936;46.328;11.026;2024-01-30T06:00:05;96038.00;;;-5.49;100.00
39223;BME280;24936;46.328;11.026;2024-01-30T06:02:31;96038.03;;;-5.54;100.00
39223;BME280;24936;46.328;11.026;2024-01-30T06:04:57;96026.03;;;-5.47;100.00
39223;BME280;24936;46.328;11.026;2024-01-30T06:07:22;96033.69;;;-5.42;100.00
39223;BME280;24936;46.328;11.026;2024-01-30T06:09:47;96032.00;;;-5.46;100.00
39223;BME280;24936;46.328;11.026;2024-01-30T06:12:13;96034.59;;;-5.48;100.00
39223;BME280;24936;46.328;11.026;2024-01-30T06:14:39;96034.56;;;-5.49;100.00
39223;BME280;24936;46.328;11.026;2024-01-30T06:17:04;96032.88;;;-5.55;100.00
39223;BME280;24936;46.328;11.026;2024-01-30T06:19:30;96038.03;;;-5.58;100.00
39223;BME280;24936;46.328;11.026;2024-01-30T06:21:55;96032.03;;;-5.53;100.00
39223;BME280;24936;46.328;11.026;2024-01-30T06:24:27;96036.28;;;-5.48;100.00
39223;BME280;24936;46.328;11.026;2024-01-30T06:26:53;96040.56;;;-5.44;100.00
39223;BME280;24936;46.328;11.026;2024-01-30T06:29:18;96035.47;;;-5.50;100.00
39223;BME280;24936;46.328;11.026;2024-01-30T06:31:44;96024.31;;;-5.49;100.00
39223;BME280;24936;46.328;11.026;2024-01-30T06:34:09;96026.91;;;-5.59;100.00
39223;BME280;24936;46.328;11.026;2024-01-30T06:36:35;96038.88;;;-5.64;100.00
39223;BME280;24936;46.328;11.026;2024-01-30T06:39:02;96039.75;;;-5.57;100.00
39223;BME280;24936;46.328;11.026;2024-01-30T06:41:27;96037.19;;;-5.62;100.00
39223;BME280;24936;46.328;11.026;2024-01-30T06:43:53;96042.31;;;-5.62;100.00
39223;BME280;24936;46.328;11.026;2024-01-30T06:46:18;96044.88;;;-5.59;100.00
39223;BME280;24936;46.328;11.026;2024-01-30T06:48:44;96048.28;;;-5.57;100.00
39223;BME280;24936;46.328;11.026;2024-01-30T06:51:10;96044.00;;;-5.55;100.00
39223;BME280;24936;46.328;11.026;2024-01-30T06:53:37;96046.59;;;-5.58;100.00
39223;BME280;24936;46.328;11.026;2024-01-30T06:56:02;96050.03;;;-5.57;100.00
39223;BME280;24936;46.328;11.026;2024-01-30T06:58:28;96047.44;;;-5.53;100.00
39223;BME280;24936;46.328;11.026;2024-01-30T07:00:54;96045.66;;;-5.43;100.00
39223;BME280;24936;46.328;11.026;2024-01-30T07:03:19;96052.47;;;-5.28;100.00
39223;BME280;24936;46.328;11.026;2024-01-30T07:05:45;96049.06;;;-5.30;100.00
39223;BME280;24936;46.328;11.026;2024-01-30T07:08:10;96050.75;;;-5.18;100.00
39223;BME280;24936;46.328;11.026;2024-01-30T07:10:36;96055.84;;;-5.19;100.00
39223;BME280;24936;46.328;11.026;2024-01-30T07:13:01;96050.72;;;-5.19;100.00
39223;BME280;24936;46.328;11.026;2024-01-30T07:15:27;96058.44;;;-5.19;100.00
39223;BME280;24936;46.328;11.026;2024-01-30T07:17:53;96066.97;;;-5.17;100.00
39223;BME280;24936;46.328;11.026;2024-01-30T07:20:18;96061.88;;;-5.22;100.00
39223;BME280;24936;46.328;11.026;2024-01-30T07:22:45;96068.72;;;-5.18;100.00
39223;BME280;24936;46.328;11.026;2024-01-30T07:25:11;96065.25;;;-5.11;100.00
39223;BME280;24936;46.328;11.026;2024-01-30T07:27:36;96060.97;;;-5.10;100.00
39223;BME280;24936;46.328;11.026;2024-01-30T07:30:02;96072.94;;;-5.08;100.00
39223;BME280;24936;46.328;11.026;2024-01-30T07:32:27;96066.94;;;-5.05;100.00
39223;BME280;24936;46.328;11.026;2024-01-30T07:34:53;96066.94;;;-5.05;100.00
39223;BME280;24936;46.328;11.026;2024-01-30T07:37:18;96070.28;;;-4.87;100.00
39223;BME280;24936;46.328;11.026;2024-01-30T07:39:44;96068.50;;;-4.74;100.00
39223;BME280;24936;46.328;11.026;2024-01-30T07:42:10;96071.84;;;-4.62;100.00
39223;BME280;24936;46.328;11.026;2024-01-30T07:44:35;96070.09;;;-4.55;100.00
39223;BME280;24936;46.328;11.026;2024-01-30T07:47:01;96069.16;;;-4.43;100.00
39223;BME280;24936;46.328;11.026;2024-01-30T07:49:28;96078.53;;;-4.36;100.00
39223;BME280;24936;46.328;11.026;2024-01-30T07:51:54;96077.59;;;-4.22;100.00
39223;BME280;24936;46.328;11.026;2024-01-30T07:54:19;96080.00;;;-4.02;100.00
39223;BME280;24936;46.328;11.026;2024-01-30T07:56:45;96081.59;;;-3.84;100.00
39223;BME280;24936;46.328;11.026;2024-01-30T07:59:11;96079.63;;;-3.62;100.00
39223;BME280;24936;46.328;11.026;2024-01-30T08:01:36;96076.97;;;-3.51;100.00
39223;BME280;24936;46.328;11.026;2024-01-30T08:04:02;96082.19;;;-3.57;100.00
39223;BME280;24936;46.328;11.026;2024-01-30T08:06:27;96081.31;;;-3.55;100.00
39223;BME280;24936;46.328;11.026;2024-01-30T08:08:53;96075.22;;;-3.47;100.00
39223;BME280;24936;46.328;11.026;2024-01-30T08:11:21;96081.25;;;-3.50;100.00
39223;BME280;24936;46.328;11.026;2024-01-30T08:13:52;96084.34;;;-3.18;100.00
39223;BME280;24936;46.328;11.026;2024-01-30T08:16:17;96095.47;;;-3.13;100.00
39223;BME280;24936;46.328;11.026;2024-01-30T08:18:43;96092.16;;;-3.25;100.00
39223;BME280;24936;46.328;11.026;2024-01-30T08:21:08;96084.94;;;-2.96;100.00
39223;BME280;24936;46.328;11.026;2024-01-30T08:23:34;96089.34;;;-3.06;100.00
39223;BME280;24936;46.328;11.026;2024-01-30T08:26:00;96086.66;;;-2.94;100.00
39223;BME280;24936;46.328;11.026;2024-01-30T08:28:25;96085.72;;;-2.88;100.00
39223;BME280;24936;46.328;11.026;2024-01-30T08:30:51;96082.84;;;-2.66;100.00
39223;BME280;24936;46.328;11.026;2024-01-30T08:33:16;96085.16;;;-2.46;100.00
39223;BME280;24936;46.328;11.026;2024-01-30T08:35:42;96086.88;;;-2.45;100.00
39223;BME280;24936;46.328;11.026;2024-01-30T08:38:07;96081.56;;;-2.34;100.00
39223;BME280;24936;46.328;11.026;2024-01-30T08:40:33;96078.00;;;-2.25;100.00
39223;BME280;24936;46.328;11.026;2024-01-30T08:42:58;96073.38;;;-2.03;100.00
39223;BME280;24936;46.328;11.026;2024-01-30T08:45:24;96074.53;;;-1.71;100.00
39223;BME280;24936;46.328;11.026;2024-01-30T08:47:49;96070.59;;;-1.42;100.00
39223;BME280;24936;46.328;11.026;2024-01-30T08:50:15;96074.41;;;-1.16;100.00
39223;BME280;24936;46.328;11.026;2024-01-30T08:52:40;96078.84;;;-1.21;100.00
39223;BME280;24936;46.328;11.026;2024-01-30T08:55:06;96072.41;;;-1.02;100.00
39223;BME280;24936;46.328;11.026;2024-01-30T08:57:32;96071.28;;;-0.87;100.00
39223;BME280;24936;46.328;11.026;2024-01-30T08:59:57;96075.19;;;-0.28;100.00
39223;BME280;24936;46.328;11.026;2024-01-30T09:02:22;96074.91;;;0.55;100.00
39223;BME280;24936;46.328;11.026;2024-01-30T09:04:48;96071.13;;;1.60;100.00
39223;BME280;24936;46.328;11.026;2024-01-30T09:07:13;96071.81;;;2.74;100.00
39223;BME280;24936;46.328;11.026;2024-01-30T09:09:39;96070.03;;;4.18;100.00
39223;BME280;24936;46.328;11.026;2024-01-30T09:12:08;96084.50;;;4.88;100.00
39223;BME280;24936;46.328;11.026;2024-01-30T09:14:35;96082.34;;;6.15;100.00
39223;BME280;24936;46.328;11.026;2024-01-30T09:17:01;96083.97;;;5.98;100.00
39223;BME280;24936;46.328;11.026;2024-01-30T09:19:28;96081.63;;;6.30;100.00
39223;BME280;24936;46.328;11.026;2024-01-30T09:21:53;96091.06;;;6.87;100.00
39223;BME280;24936;46.328;11.026;2024-01-30T09:24:19;96088.25;;;7.41;100.00
39223;BME280;24936;46.328;11.026;2024-01-30T09:26:45;96085.66;;;7.41;100.00
39223;BME280;24936;46.328;11.026;2024-01-30T09:29:11;96086.66;;;7.39;100.00
39223;BME280;24936;46.328;11.026;2024-01-30T09:31:36;96087.28;;;7.10;100.00
39223;BME280;24936;46.328;11.026;2024-01-30T09:34:01;96084.13;;;6.86;100.00
39223;BME280;24936;46.328;11.026;2024-01-30T09:36:27;96090.03;;;6.89;100.00
39223;BME280;24936;46.328;11.026;2024-01-30T09:38:53;96086.88;;;6.65;100.00
39223;BME280;24936;46.328;11.026;2024-01-30T09:41:19;96083.69;;;6.41;100.00
39223;BME280;24936;46.328;11.026;2024-01-30T09:43:47;96087.28;;;6.21;100.00
39223;BME280;24936;46.328;11.026;2024-01-30T09:46:17;96075.47;;;6.31;100.00
39223;BME280;24936;46.328;11.026;2024-01-30T09:48:46;96079.81;;;6.85;100.00
39223;BME280;24936;46.328;11.026;2024-01-30T09:51:13;96084.09;;;6.33;100.00
39223;BME280;24936;46.328;11.026;2024-01-30T09:53:40;96082.38;;;7.54;100.00
39223;BME280;24936;46.328;11.026;2024-01-30T09:56:07;96091.72;;;7.75;100.00
39223;BME280;24936;46.328;11.026;2024-01-30T09:58:33;96087.56;;;9.12;100.00
39223;BME280;24936;46.328;11.026;2024-01-30T10:00:58;96082.22;;;8.53;100.00
39223;BME280;24936;46.328;11.026;2024-01-30T10:03:24;96080.81;;;7.99;100.00
39223;BME280;24936;46.328;11.026;2024-01-30T10:05:51;96087.66;;;8.34;100.00
39223;BME280;24936;46.328;11.026;2024-01-30T10:08:19;96080.63;;;8.18;100.00
39223;BME280;24936;46.328;11.026;2024-01-30T10:10:46;96083.19;;;8.82;100.00
39223;BME280;24936;46.328;11.026;2024-01-30T10:13:12;96080.31;;;8.24;100.00
39223;BME280;24936;46.328;11.026;2024-01-30T10:15:38;96071.78;;;8.21;100.00
39223;BME280;24936;46.328;11.026;2024-01-30T10:18:08;96070.31;;;9.37;100.00
39223;BME280;24936;46.328;11.026;2024-01-30T10:20:35;96075.31;;;8.82;100.00
39223;BME280;24936;46.328;11.026;2024-01-30T10:23:01;96060.16;;;8.41;100.00
39223;BME280;24936;46.328;11.026;2024-01-30T10:25:26;96070.66;;;8.09;100.00
39223;BME280;24936;46.328;11.026;2024-01-30T10:27:53;96070.44;;;7.48;100.00
39223;BME280;24936;46.328;11.026;2024-01-30T10:30:21;96069.38;;;7.52;100.00
39223;BME280;24936;46.328;11.026;2024-01-30T10:32:47;96059.84;;;7.83;100.00
39223;BME280;24936;46.328;11.026;2024-01-30T10:35:12;96056.94;;;7.56;100.00
39223;BME280;24936;46.328;11.026;2024-01-30T10:37:38;96057.31;;;6.63;100.00
39223;BME280;24936;46.328;11.026;2024-01-30T10:40:04;96046.34;;;7.08;100.00
39223;BME280;24936;46.328;11.026;2024-01-30T10:42:32;96045.78;;;6.32;100.00
39223;BME280;24936;46.328;11.026;2024-01-30T10:45:08;96050.81;;;7.39;100.00
39223;BME280;24936;46.328;11.026;2024-01-30T10:47:34;96041.56;;;8.91;100.00
39223;BME280;24936;46.328;11.026;2024-01-30T10:50:03;96038.78;;;9.37;94.21
39223;BME280;24936;46.328;11.026;2024-01-30T10:52:29;96037.34;;;8.11;100.00
39223;BME280;24936;46.328;11.026;2024-01-30T10:54:56;96029.72;;;8.69;100.00
39223;BME280;24936;46.328;11.026;2024-01-30T10:57:26;96027.13;;;9.56;95.38
39223;BME280;24936;46.328;11.026;2024-01-30T10:59:56;96026.94;;;9.15;88.06
39223;BME280;24936;46.328;11.026;2024-01-30T11:02:23;96020.31;;;8.65;100.00
39223;BME280;24936;46.328;11.026;2024-01-30T11:04:49;96005.13;;;8.39;100.00
39223;BME280;24936;46.328;11.026;2024-01-30T11:09:50;96008.09;;;9.38;92.24
39223;BME280;24936;46.328;11.026;2024-01-30T11:12:16;96005.28;;;9.26;96.65
39223;BME280;24936;46.328;11.026;2024-01-30T11:14:42;96001.50;;;9.59;87.07
39223;BME280;24936;46.328;11.026;2024-01-30T11:17:09;96004.16;;;9.87;92.43
39223;BME280;24936;46.328;11.026;2024-01-30T11:19:37;96004.69;;;9.64;87.91
39223;BME280;24936;46.328;11.026;2024-01-30T11:22:03;95998.13;;;10.67;84.98
39223;BME280;24936;46.328;11.026;2024-01-30T11:24:29;95998.47;;;10.88;77.26
39223;BME280;24936;46.328;11.026;2024-01-30T11:26:56;95991.53;;;10.06;77.31
39223;BME280;24936;46.328;11.026;2024-01-30T11:29:29;95987.81;;;9.25;89.00
39223;BME280;24936;46.328;11.026;2024-01-30T11:31:57;95978.03;;;8.55;88.85
39223;BME280;24936;46.328;11.026;2024-01-30T11:34:22;95976.28;;;9.28;98.66
39223;BME280;24936;46.328;11.026;2024-01-30T11:36:52;95978.19;;;9.11;93.29
39223;BME280;24936;46.328;11.026;2024-01-30T11:39:24;95971.97;;;9.83;81.24
39223;BME280;24936;46.328;11.026;2024-01-30T11:41:53;95980.41;;;10.56;80.56
39223;BME280;24936;46.328;11.026;2024-01-30T11:44:20;95974.13;;;10.59;73.29
39223;BME280;24936;46.328;11.026;2024-01-30T11:46:49;95968.31;;;10.26;72.58
39223;BME280;24936;46.328;11.026;2024-01-30T11:49:18;95973.59;;;11.05;67.96
39223;BME280;24936;46.328;11.026;2024-01-30T11:51:48;95968.09;;;10.69;66.17
39223;BME280;24936;46.328;11.026;2024-01-30T11:54:17;95966.88;;;10.35;68.13
39223;BME280;24936;46.328;11.026;2024-01-30T11:56:43;95964.06;;;10.10;70.29
39223;BME280;24936;46.328;11.026;2024-01-30T11:59:08;95964.38;;;9.78;74.89
39223;BME280;24936;46.328;11.026;2024-01-30T12:01:34;95954.88;;;9.76;70.73
39223;BME280;24936;46.328;11.026;2024-01-30T12:04:00;95959.81;;;9.95;70.39
39223;BME280;24936;46.328;11.026;2024-01-30T12:06:26;95946.38;;;10.13;75.17
39223;BME280;24936;46.328;11.026;2024-01-30T12:09:02;95942.94;;;10.52;68.20
39223;BME280;24936;46.328;11.026;2024-01-30T12:11:31;95942.22;;;10.89;70.48
39223;BME280;24936;46.328;11.026;2024-01-30T12:13:57;95929.91;;;10.23;67.61
39223;BME280;24936;46.328;11.026;2024-01-30T12:16:22;95930.84;;;10.76;62.70
39223;BME280;24936;46.328;11.026;2024-01-30T12:18:48;95924.06;;;11.60;63.93
39223;BME280;24936;46.328;11.026;2024-01-30T12:21:17;95931.72;;;11.39;59.67
39223;BME280;24936;46.328;11.026;2024-01-30T12:23:44;95912.88;;;12.18;54.38
39223;BME280;24936;46.328;11.026;2024-01-30T12:26:10;95913.75;;;12.42;55.52
39223;BME280;24936;46.328;11.026;2024-01-30T12:28:36;95913.72;;;11.57;55.17
39223;BME280;24936;46.328;11.026;2024-01-30T12:31:02;95913.53;;;12.09;47.41
39223;BME280;24936;46.328;11.026;2024-01-30T12:33:29;95902.06;;;11.97;55.48
39223;BME280;24936;46.328;11.026;2024-01-30T12:35:55;95901.94;;;11.13;59.96
39223;BME280;24936;46.328;11.026;2024-01-30T12:38:21;95894.22;;;11.10;63.91